^^
Station Historical Data
Daily Summary for January 26, 2017 Units:  English    Metric   Both
« Previous Day
Next Day »
Daily Weekly Monthly Yearly Custom
  High: Low: Average:
Temperature: 42.2 °F 40.1 °F 41.3 °F
Dew Point: 30.8 °F 29.3 °F 30.1 °F
Humidity: 67% 61% 64%
Wind Speed: 9.0mph 2.0mph 5.3mph
Wind Gust: 18.0mph - -
Wind- - SW
Pressure: 29.57 in 29.46 in -
Precipitation: 0.01 in    
Historical Graphs
 
 
Tabular Data for January 26, 2017
Time Temperature Dew Point Pressure Wind Wind Speed Wind Gust Humidity Rainfall Rate (Hourly) Conditions
18:34 42.1 °F 29.6 °F 29.46 in WSW 6.0 mph 12.0 mph 61% 0.00 in SCT
18:40 42.2 °F 29.7 °F 29.47 in WSW 6.0 mph 18.0 mph 61% 0.00 in SCT
19:00 42.2 °F 30.1 °F 29.48 in SW 3.0 mph 15.0 mph 62% 0.00 in SCT
19:20 42.1 °F 30.0 °F 29.48 in WSW 6.0 mph 16.0 mph 62% 0.00 in SCT
19:30 42.0 °F 30.3 °F 29.48 in SW 7.0 mph 16.0 mph 63% 0.00 in SCT
19:40 41.8 °F 30.1 °F 29.48 in WSW 5.0 mph 16.0 mph 63% 0.00 in SCT
19:50 41.5 °F 30.2 °F 29.48 in SW 5.0 mph 9.0 mph 64% 0.00 in SCT
20:00 41.6 °F 30.3 °F 29.48 in WSW 3.0 mph 15.0 mph 64% 0.00 in SCT
20:10 41.7 °F 30.0 °F 29.48 in WSW 9.0 mph 18.0 mph 63% 0.00 in FEW
20:20 41.6 °F 29.9 °F 29.48 in SW 8.0 mph 17.0 mph 63% 0.00 in FEW
20:30 41.5 °F 30.2 °F 29.48 in WSW 7.0 mph 16.0 mph 64% 0.00 in FEW
20:40 41.5 °F 30.2 °F 29.48 in WSW 6.0 mph 16.0 mph 64% 0.00 in FEW
20:50 41.6 °F 30.3 °F 29.49 in WSW 7.0 mph 17.0 mph 64% 0.00 in FEW
21:00 41.7 °F 30.4 °F 29.50 in SW 7.0 mph 16.0 mph 64% 0.00 in FEW
21:20 41.6 °F 30.3 °F 29.50 in SW 8.0 mph 16.0 mph 64% 0.00 in FEW
21:40 41.6 °F 30.7 °F 29.51 in SW 5.0 mph 17.0 mph 65% 0.00 in FEW
21:50 41.5 °F 30.6 °F 29.51 in South 3.0 mph 13.0 mph 65% 0.00 in FEW
22:00 41.4 °F 30.5 °F 29.52 in WSW 5.0 mph 16.0 mph 65% 0.00 in FEW
22:10 41.2 °F 30.7 °F 29.53 in WSW 8.0 mph 15.0 mph 66% 0.00 in SCT
22:20 41.1 °F 30.6 °F 29.53 in SW 3.0 mph 17.0 mph 66% 0.00 in SCT
22:30 41.0 °F 30.8 °F 29.54 in SW 6.0 mph 15.0 mph 67% 0.00 in SCT
22:40 40.8 °F 30.3 °F 29.55 in SW 5.0 mph 14.0 mph 66% 0.00 in SCT
22:50 40.8 °F 30.3 °F 29.56 in SSW 5.0 mph 15.0 mph 66% 0.00 in SCT
23:00 40.7 °F 29.8 °F 29.56 in SSW 3.0 mph 17.0 mph 65% 0.00 in SCT
23:10 40.5 °F 29.7 °F 29.56 in WSW 3.0 mph 16.0 mph 65% 0.00 in SCT
23:20 40.3 °F 29.5 °F 29.56 in SE 2.0 mph 10.0 mph 65% 0.00 in SCT
23:30 40.1 °F 29.3 °F 29.57 in SSW 5.0 mph 12.0 mph 65% 0.00 in SCT
23:40 40.1 °F 29.3 °F 29.57 in SW 3.0 mph 16.0 mph 65% 0.00 in SCT
23:50 40.1 °F 29.3 °F 29.57 in West 6.0 mph 15.0 mph 65% 0.00 in SCT
TarryTown NY Weather
Compliments of Weather Underground - 1 mb